sensor_id;sensor_type;location;lat;lon;timestamp;P1;durP1;ratioP1;P2;durP2;ratioP2
37655;SDS011;23498;50.958;3.124;2023-12-29T00:02:07;9.82;;;2.03;;
37655;SDS011;23498;50.958;3.124;2023-12-29T00:05:00;8.02;;;2.05;;
37655;SDS011;23498;50.958;3.124;2023-12-29T00:07:31;9.70;;;2.15;;
37655;SDS011;23498;50.958;3.124;2023-12-29T00:10:05;13.65;;;3.17;;
37655;SDS011;23498;50.958;3.124;2023-12-29T00:15:22;11.20;;;2.40;;
37655;SDS011;23498;50.958;3.124;2023-12-29T00:17:57;14.60;;;2.88;;
37655;SDS011;23498;50.958;3.124;2023-12-29T00:20:46;13.98;;;2.22;;
37655;SDS011;23498;50.958;3.124;2023-12-29T00:23:37;12.27;;;2.58;;
37655;SDS011;23498;50.958;3.124;2023-12-29T00:28:52;11.07;;;2.45;;
37655;SDS011;23498;50.958;3.124;2023-12-29T00:31:38;12.98;;;2.45;;
37655;SDS011;23498;50.958;3.124;2023-12-29T00:34:27;16.50;;;3.13;;
37655;SDS011;23498;50.958;3.124;2023-12-29T00:40:21;12.27;;;2.33;;
37655;SDS011;23498;50.958;3.124;2023-12-29T00:42:51;10.68;;;2.28;;
37655;SDS011;23498;50.958;3.124;2023-12-29T00:45:30;13.43;;;2.17;;
37655;SDS011;23498;50.958;3.124;2023-12-29T00:48:08;12.10;;;2.00;;
37655;SDS011;23498;50.958;3.124;2023-12-29T00:50:39;9.98;;;2.00;;
37655;SDS011;23498;50.958;3.124;2023-12-29T00:53:13;11.53;;;2.40;;
37655;SDS011;23498;50.958;3.124;2023-12-29T00:56:13;11.38;;;2.38;;
37655;SDS011;23498;50.958;3.124;2023-12-29T00:58:50;12.20;;;2.28;;
37655;SDS011;23498;50.958;3.124;2023-12-29T01:01:33;12.07;;;3.03;;
37655;SDS011;23498;50.958;3.124;2023-12-29T01:04:07;12.10;;;2.40;;
37655;SDS011;23498;50.958;3.124;2023-12-29T01:06:55;14.35;;;2.47;;
37655;SDS011;23498;50.958;3.124;2023-12-29T01:09:29;8.60;;;2.17;;
37655;SDS011;23498;50.958;3.124;2023-12-29T01:11:55;12.68;;;1.98;;
37655;SDS011;23498;50.958;3.124;2023-12-29T01:14:25;12.13;;;2.13;;
37655;SDS011;23498;50.958;3.124;2023-12-29T01:20:00;12.23;;;2.30;;
37655;SDS011;23498;50.958;3.124;2023-12-29T01:23:07;9.38;;;2.50;;
37655;SDS011;23498;50.958;3.124;2023-12-29T01:25:45;8.93;;;2.10;;
37655;SDS011;23498;50.958;3.124;2023-12-29T01:28:16;13.98;;;2.03;;
37655;SDS011;23498;50.958;3.124;2023-12-29T01:31:05;12.52;;;2.20;;
37655;SDS011;23498;50.958;3.124;2023-12-29T01:33:44;19.13;;;2.60;;
37655;SDS011;23498;50.958;3.124;2023-12-29T01:36:19;11.30;;;2.58;;
37655;SDS011;23498;50.958;3.124;2023-12-29T01:39:05;10.23;;;2.20;;
37655;SDS011;23498;50.958;3.124;2023-12-29T01:41:51;7.47;;;2.15;;
37655;SDS011;23498;50.958;3.124;2023-12-29T01:44:45;11.60;;;2.33;;
37655;SDS011;23498;50.958;3.124;2023-12-29T01:47:21;10.45;;;2.25;;
37655;SDS011;23498;50.958;3.124;2023-12-29T01:49:53;16.13;;;2.20;;
37655;SDS011;23498;50.958;3.124;2023-12-29T01:52:47;9.77;;;2.33;;
37655;SDS011;23498;50.958;3.124;2023-12-29T01:55:27;12.98;;;2.40;;
37655;SDS011;23498;50.958;3.124;2023-12-29T02:01:06;12.40;;;2.13;;
37655;SDS011;23498;50.958;3.124;2023-12-29T02:06:41;10.00;;;2.15;;
37655;SDS011;23498;50.958;3.124;2023-12-29T02:09:29;13.98;;;2.30;;
37655;SDS011;23498;50.958;3.124;2023-12-29T02:12:16;11.43;;;2.43;;
37655;SDS011;23498;50.958;3.124;2023-12-29T02:20:52;14.10;;;1.90;;
37655;SDS011;23498;50.958;3.124;2023-12-29T02:23:34;13.60;;;2.15;;
37655;SDS011;23498;50.958;3.124;2023-12-29T02:28:59;13.65;;;2.30;;
37655;SDS011;23498;50.958;3.124;2023-12-29T02:31:37;12.82;;;2.20;;
37655;SDS011;23498;50.958;3.124;2023-12-29T02:34:22;13.73;;;2.30;;
37655;SDS011;23498;50.958;3.124;2023-12-29T02:42:52;11.55;;;2.17;;
37655;SDS011;23498;50.958;3.124;2023-12-29T02:48:12;12.50;;;2.10;;
37655;SDS011;23498;50.958;3.124;2023-12-29T02:50:43;12.77;;;2.00;;
37655;SDS011;23498;50.958;3.124;2023-12-29T02:53:38;13.50;;;2.13;;
37655;SDS011;23498;50.958;3.124;2023-12-29T02:56:08;16.05;;;2.72;;
37655;SDS011;23498;50.958;3.124;2023-12-29T02:58:37;11.57;;;2.08;;
37655;SDS011;23498;50.958;3.124;2023-12-29T03:01:03;11.55;;;1.92;;
37655;SDS011;23498;50.958;3.124;2023-12-29T03:03:42;10.43;;;2.15;;
37655;SDS011;23498;50.958;3.124;2023-12-29T03:09:22;11.73;;;2.22;;
37655;SDS011;23498;50.958;3.124;2023-12-29T03:12:00;12.90;;;2.78;;
37655;SDS011;23498;50.958;3.124;2023-12-29T03:14:44;21.85;;;2.90;;
37655;SDS011;23498;50.958;3.124;2023-12-29T03:17:21;11.73;;;2.45;;
37655;SDS011;23498;50.958;3.124;2023-12-29T03:20:07;16.35;;;2.92;;
37655;SDS011;23498;50.958;3.124;2023-12-29T03:22:59;17.60;;;3.03;;
37655;SDS011;23498;50.958;3.124;2023-12-29T03:25:28;9.70;;;1.90;;
37655;SDS011;23498;50.958;3.124;2023-12-29T03:28:07;15.70;;;2.92;;
37655;SDS011;23498;50.958;3.124;2023-12-29T03:30:49;9.75;;;2.03;;
37655;SDS011;23498;50.958;3.124;2023-12-29T03:33:45;13.77;;;2.10;;
37655;SDS011;23498;50.958;3.124;2023-12-29T03:36:21;14.25;;;1.90;;
37655;SDS011;23498;50.958;3.124;2023-12-29T03:39:05;14.98;;;2.20;;
37655;SDS011;23498;50.958;3.124;2023-12-29T03:41:37;13.70;;;2.30;;
37655;SDS011;23498;50.958;3.124;2023-12-29T03:44:31;12.55;;;2.20;;
37655;SDS011;23498;50.958;3.124;2023-12-29T03:47:12;11.75;;;2.13;;
37655;SDS011;23498;50.958;3.124;2023-12-29T03:50:05;14.13;;;2.10;;
37655;SDS011;23498;50.958;3.124;2023-12-29T03:52:54;10.50;;;1.95;;
37655;SDS011;23498;50.958;3.124;2023-12-29T03:55:21;9.23;;;1.60;;
37655;SDS011;23498;50.958;3.124;2023-12-29T03:57:57;11.15;;;1.98;;
37655;SDS011;23498;50.958;3.124;2023-12-29T04:00:33;9.23;;;1.90;;
37655;SDS011;23498;50.958;3.124;2023-12-29T04:03:37;16.48;;;2.20;;
37655;SDS011;23498;50.958;3.124;2023-12-29T04:06:28;10.57;;;1.73;;
37655;SDS011;23498;50.958;3.124;2023-12-29T04:08:59;12.30;;;1.95;;
37655;SDS011;23498;50.958;3.124;2023-12-29T04:11:43;11.00;;;2.00;;
37655;SDS011;23498;50.958;3.124;2023-12-29T04:14:18;14.05;;;2.28;;
37655;SDS011;23498;50.958;3.124;2023-12-29T04:17:10;10.02;;;1.98;;
37655;SDS011;23498;50.958;3.124;2023-12-29T04:22:42;9.48;;;1.42;;
37655;SDS011;23498;50.958;3.124;2023-12-29T04:25:37;8.68;;;1.70;;
37655;SDS011;23498;50.958;3.124;2023-12-29T04:28:17;6.03;;;1.70;;
37655;SDS011;23498;50.958;3.124;2023-12-29T04:31:05;8.18;;;1.48;;
37655;SDS011;23498;50.958;3.124;2023-12-29T04:34:07;10.65;;;2.08;;
37655;SDS011;23498;50.958;3.124;2023-12-29T04:36:36;9.25;;;1.50;;
37655;SDS011;23498;50.958;3.124;2023-12-29T04:39:19;9.82;;;1.50;;
37655;SDS011;23498;50.958;3.124;2023-12-29T04:42:12;9.88;;;1.92;;
37655;SDS011;23498;50.958;3.124;2023-12-29T04:44:56;6.65;;;1.83;;
37655;SDS011;23498;50.958;3.124;2023-12-29T04:47:26;14.30;;;2.10;;
37655;SDS011;23498;50.958;3.124;2023-12-29T04:50:17;9.32;;;1.95;;
37655;SDS011;23498;50.958;3.124;2023-12-29T04:53:06;6.88;;;1.70;;
37655;SDS011;23498;50.958;3.124;2023-12-29T04:55:45;8.35;;;1.40;;
37655;SDS011;23498;50.958;3.124;2023-12-29T04:58:21;8.43;;;2.13;;
37655;SDS011;23498;50.958;3.124;2023-12-29T05:01:01;10.43;;;1.80;;
37655;SDS011;23498;50.958;3.124;2023-12-29T05:04:04;6.57;;;1.38;;
37655;SDS011;23498;50.958;3.124;2023-12-29T05:06:35;6.97;;;2.17;;
37655;SDS011;23498;50.958;3.124;2023-12-29T05:09:18;6.30;;;1.20;;
37655;SDS011;23498;50.958;3.124;2023-12-29T05:11:53;6.13;;;2.00;;
37655;SDS011;23498;50.958;3.124;2023-12-29T05:14:21;5.55;;;1.42;;
37655;SDS011;23498;50.958;3.124;2023-12-29T05:17:16;8.30;;;1.35;;
37655;SDS011;23498;50.958;3.124;2023-12-29T05:19:42;8.40;;;1.70;;
37655;SDS011;23498;50.958;3.124;2023-12-29T05:25:35;6.75;;;1.50;;
37655;SDS011;23498;50.958;3.124;2023-12-29T05:28:06;8.43;;;2.60;;
37655;SDS011;23498;50.958;3.124;2023-12-29T05:30:52;10.00;;;1.90;;
37655;SDS011;23498;50.958;3.124;2023-12-29T05:33:36;8.75;;;2.25;;
37655;SDS011;23498;50.958;3.124;2023-12-29T05:36:08;7.55;;;1.75;;
37655;SDS011;23498;50.958;3.124;2023-12-29T05:38:39;9.45;;;1.98;;
37655;SDS011;23498;50.958;3.124;2023-12-29T05:41:13;8.52;;;1.80;;
37655;SDS011;23498;50.958;3.124;2023-12-29T05:43:50;8.05;;;1.90;;
37655;SDS011;23498;50.958;3.124;2023-12-29T05:49:28;6.78;;;1.83;;
37655;SDS011;23498;50.958;3.124;2023-12-29T06:00:28;8.90;;;2.55;;
37655;SDS011;23498;50.958;3.124;2023-12-29T06:02:57;6.03;;;2.40;;
37655;SDS011;23498;50.958;3.124;2023-12-29T06:05:54;7.28;;;1.77;;
37655;SDS011;23498;50.958;3.124;2023-12-29T06:08:47;9.60;;;2.00;;
37655;SDS011;23498;50.958;3.124;2023-12-29T06:14:35;5.80;;;1.90;;
37655;SDS011;23498;50.958;3.124;2023-12-29T06:17:11;9.32;;;1.88;;
37655;SDS011;23498;50.958;3.124;2023-12-29T06:19:49;5.10;;;1.90;;
37655;SDS011;23498;50.958;3.124;2023-12-29T06:25:30;8.20;;;2.35;;
37655;SDS011;23498;50.958;3.124;2023-12-29T06:31:30;7.13;;;2.10;;
37655;SDS011;23498;50.958;3.124;2023-12-29T06:34:09;7.93;;;1.90;;
37655;SDS011;23498;50.958;3.124;2023-12-29T06:36:46;5.97;;;1.70;;
37655;SDS011;23498;50.958;3.124;2023-12-29T06:39:22;5.43;;;1.73;;
37655;SDS011;23498;50.958;3.124;2023-12-29T06:51:30;10.02;;;2.05;;
37655;SDS011;23498;50.958;3.124;2023-12-29T06:54:12;7.30;;;1.80;;
37655;SDS011;23498;50.958;3.124;2023-12-29T06:57:15;6.95;;;1.90;;
37655;SDS011;23498;50.958;3.124;2023-12-29T07:00:08;5.20;;;1.42;;
37655;SDS011;23498;50.958;3.124;2023-12-29T07:08:39;6.30;;;1.17;;
37655;SDS011;23498;50.958;3.124;2023-12-29T07:14:32;3.00;;;0.75;;
37655;SDS011;23498;50.958;3.124;2023-12-29T07:23:52;2.08;;;0.60;;
37655;SDS011;23498;50.958;3.124;2023-12-29T07:26:42;4.18;;;0.70;;
37655;SDS011;23498;50.958;3.124;2023-12-29T07:39:04;2.47;;;0.70;;
37655;SDS011;23498;50.958;3.124;2023-12-29T07:51:11;3.38;;;0.88;;
37655;SDS011;23498;50.958;3.124;2023-12-29T07:57:12;2.53;;;0.70;;
37655;SDS011;23498;50.958;3.124;2023-12-29T07:59:48;2.50;;;0.75;;
37655;SDS011;23498;50.958;3.124;2023-12-29T08:09:15;6.15;;;1.73;;
37655;SDS011;23498;50.958;3.124;2023-12-29T08:12:28;5.13;;;1.40;;
37655;SDS011;23498;50.958;3.124;2023-12-29T08:18:40;5.85;;;0.80;;
37655;SDS011;23498;50.958;3.124;2023-12-29T08:24:56;3.85;;;1.15;;
37655;SDS011;23498;50.958;3.124;2023-12-29T08:30:51;4.90;;;0.80;;
37655;SDS011;23498;50.958;3.124;2023-12-29T08:46:21;5.15;;;0.90;;
37655;SDS011;23498;50.958;3.124;2023-12-29T10:25:41;13.68;;;2.40;;
37655;SDS011;23498;50.958;3.124;2023-12-29T10:45:44;14.68;;;2.53;;
37655;SDS011;23498;50.958;3.124;2023-12-29T10:48:12;15.60;;;1.90;;
37655;SDS011;23498;50.958;3.124;2023-12-29T10:50:49;13.63;;;2.72;;
37655;SDS011;23498;50.958;3.124;2023-12-29T10:53:54;12.73;;;1.80;;
37655;SDS011;23498;50.958;3.124;2023-12-29T10:56:38;19.45;;;2.90;;
37655;SDS011;23498;50.958;3.124;2023-12-29T11:02:23;16.13;;;2.42;;
37655;SDS011;23498;50.958;3.124;2023-12-29T11:05:12;11.20;;;1.70;;
37655;SDS011;23498;50.958;3.124;2023-12-29T11:07:43;10.52;;;1.73;;
37655;SDS011;23498;50.958;3.124;2023-12-29T11:10:27;9.23;;;1.83;;
37655;SDS011;23498;50.958;3.124;2023-12-29T11:12:56;7.15;;;1.67;;
37655;SDS011;23498;50.958;3.124;2023-12-29T11:15:23;14.02;;;2.67;;
37655;SDS011;23498;50.958;3.124;2023-12-29T11:17:53;8.75;;;1.42;;
37655;SDS011;23498;50.958;3.124;2023-12-29T11:20:21;9.30;;;2.00;;
37655;SDS011;23498;50.958;3.124;2023-12-29T11:23:09;10.35;;;1.45;;
37655;SDS011;23498;50.958;3.124;2023-12-29T11:25:36;9.68;;;1.75;;
37655;SDS011;23498;50.958;3.124;2023-12-29T11:28:09;6.57;;;1.25;;
37655;SDS011;23498;50.958;3.124;2023-12-29T11:30:41;5.85;;;1.25;;
37655;SDS011;23498;50.958;3.124;2023-12-29T11:33:17;8.38;;;1.52;;
37655;SDS011;23498;50.958;3.124;2023-12-29T11:44:13;5.80;;;0.88;;
37655;SDS011;23498;50.958;3.124;2023-12-29T11:46:52;9.60;;;1.35;;
37655;SDS011;23498;50.958;3.124;2023-12-29T11:49:19;3.60;;;0.82;;
37655;SDS011;23498;50.958;3.124;2023-12-29T11:52:08;4.03;;;0.70;;
37655;SDS011;23498;50.958;3.124;2023-12-29T11:54:36;2.88;;;0.63;;
37655;SDS011;23498;50.958;3.124;2023-12-29T11:57:07;3.97;;;0.90;;
37655;SDS011;23498;50.958;3.124;2023-12-29T12:00:01;3.08;;;0.70;;
37655;SDS011;23498;50.958;3.124;2023-12-29T12:02:45;6.90;;;1.03;;
37655;SDS011;23498;50.958;3.124;2023-12-29T12:05:20;4.15;;;0.77;;
37655;SDS011;23498;50.958;3.124;2023-12-29T12:07:59;2.58;;;0.70;;
37655;SDS011;23498;50.958;3.124;2023-12-29T12:13:17;3.92;;;0.70;;
37655;SDS011;23498;50.958;3.124;2023-12-29T12:15:52;4.45;;;1.25;;
37655;SDS011;23498;50.958;3.124;2023-12-29T12:18:28;3.30;;;0.80;;
37655;SDS011;23498;50.958;3.124;2023-12-29T12:21:03;4.55;;;0.85;;
37655;SDS011;23498;50.958;3.124;2023-12-29T12:23:44;4.60;;;1.10;;
37655;SDS011;23498;50.958;3.124;2023-12-29T12:35:58;5.75;;;1.02;;
37655;SDS011;23498;50.958;3.124;2023-12-29T12:38:24;5.18;;;0.95;;
37655;SDS011;23498;50.958;3.124;2023-12-29T12:41:01;3.72;;;1.00;;
37655;SDS011;23498;50.958;3.124;2023-12-29T12:49:49;7.53;;;1.20;;
37655;SDS011;23498;50.958;3.124;2023-12-29T12:58:40;4.00;;;1.02;;
37655;SDS011;23498;50.958;3.124;2023-12-29T13:01:16;5.28;;;1.27;;
37655;SDS011;23498;50.958;3.124;2023-12-29T13:03:43;6.28;;;1.00;;
37655;SDS011;23498;50.958;3.124;2023-12-29T13:06:11;5.72;;;1.25;;
37655;SDS011;23498;50.958;3.124;2023-12-29T13:08:50;4.68;;;1.13;;
37655;SDS011;23498;50.958;3.124;2023-12-29T13:11:24;7.05;;;1.38;;
37655;SDS011;23498;50.958;3.124;2023-12-29T13:13:53;6.00;;;1.20;;
37655;SDS011;23498;50.958;3.124;2023-12-29T13:16:48;2.70;;;0.82;;
37655;SDS011;23498;50.958;3.124;2023-12-29T13:19:19;5.95;;;1.15;;
37655;SDS011;23498;50.958;3.124;2023-12-29T13:22:01;5.78;;;1.05;;
37655;SDS011;23498;50.958;3.124;2023-12-29T13:24:38;7.10;;;1.10;;
37655;SDS011;23498;50.958;3.124;2023-12-29T13:27:13;5.80;;;0.95;;
37655;SDS011;23498;50.958;3.124;2023-12-29T13:29:49;4.47;;;1.20;;
37655;SDS011;23498;50.958;3.124;2023-12-29T13:32:18;7.85;;;1.38;;
37655;SDS011;23498;50.958;3.124;2023-12-29T13:34:48;4.40;;;0.90;;
37655;SDS011;23498;50.958;3.124;2023-12-29T13:37:30;4.63;;;1.20;;
37655;SDS011;23498;50.958;3.124;2023-12-29T13:40:13;4.18;;;1.50;;
37655;SDS011;23498;50.958;3.124;2023-12-29T13:42:46;5.13;;;1.23;;
37655;SDS011;23498;50.958;3.124;2023-12-29T13:45:20;5.47;;;1.40;;
37655;SDS011;23498;50.958;3.124;2023-12-29T13:47:57;5.57;;;1.27;;
37655;SDS011;23498;50.958;3.124;2023-12-29T13:50:31;6.13;;;1.30;;
37655;SDS011;23498;50.958;3.124;2023-12-29T13:53:14;4.07;;;1.08;;
37655;SDS011;23498;50.958;3.124;2023-12-29T13:55:44;8.45;;;1.67;;
37655;SDS011;23498;50.958;3.124;2023-12-29T13:58:12;7.60;;;1.42;;
37655;SDS011;23498;50.958;3.124;2023-12-29T14:00:44;8.52;;;1.50;;
37655;SDS011;23498;50.958;3.124;2023-12-29T14:03:23;5.57;;;1.20;;
37655;SDS011;23498;50.958;3.124;2023-12-29T14:06:07;8.73;;;1.50;;
37655;SDS011;23498;50.958;3.124;2023-12-29T14:11:51;11.10;;;1.70;;
37655;SDS011;23498;50.958;3.124;2023-12-29T14:14:26;10.52;;;1.40;;
37655;SDS011;23498;50.958;3.124;2023-12-29T14:16:57;6.88;;;1.52;;
37655;SDS011;23498;50.958;3.124;2023-12-29T14:19:28;8.55;;;1.70;;
37655;SDS011;23498;50.958;3.124;2023-12-29T14:22:23;13.75;;;1.83;;
37655;SDS011;23498;50.958;3.124;2023-12-29T14:25:02;15.98;;;2.92;;
37655;SDS011;23498;50.958;3.124;2023-12-29T14:27:37;10.73;;;1.80;;
37655;SDS011;23498;50.958;3.124;2023-12-29T14:30:16;9.43;;;2.13;;
37655;SDS011;23498;50.958;3.124;2023-12-29T14:32:52;17.40;;;2.03;;
37655;SDS011;23498;50.958;3.124;2023-12-29T14:35:21;10.23;;;1.55;;
37655;SDS011;23498;50.958;3.124;2023-12-29T14:38:29;11.15;;;2.10;;
37655;SDS011;23498;50.958;3.124;2023-12-29T14:44:08;9.95;;;2.00;;
37655;SDS011;23498;50.958;3.124;2023-12-29T14:46:53;10.38;;;2.22;;
37655;SDS011;23498;50.958;3.124;2023-12-29T15:22:07;15.82;;;2.53;;
37655;SDS011;23498;50.958;3.124;2023-12-29T15:24:33;14.82;;;2.83;;
37655;SDS011;23498;50.958;3.124;2023-12-29T15:27:00;17.88;;;2.60;;
37655;SDS011;23498;50.958;3.124;2023-12-29T15:38:36;14.75;;;2.45;;
37655;SDS011;23498;50.958;3.124;2023-12-29T18:33:25;5.90;;;1.45;;
37655;SDS011;23498;50.958;3.124;2023-12-29T18:35:53;14.65;;;2.58;;
37655;SDS011;23498;50.958;3.124;2023-12-29T18:44:51;17.67;;;2.67;;
37655;SDS011;23498;50.958;3.124;2023-12-29T20:22:03;9.63;;;1.75;;
37655;SDS011;23498;50.958;3.124;2023-12-29T20:24:41;7.07;;;2.10;;
37655;SDS011;23498;50.958;3.124;2023-12-29T20:27:29;6.95;;;1.35;;
37655;SDS011;23498;50.958;3.124;2023-12-29T20:36:37;6.95;;;1.63;;
37655;SDS011;23498;50.958;3.124;2023-12-29T20:42:42;5.75;;;1.30;;
37655;SDS011;23498;50.958;3.124;2023-12-29T20:48:43;13.50;;;2.40;;
37655;SDS011;23498;50.958;3.124;2023-12-29T20:51:37;13.07;;;1.83;;
37655;SDS011;23498;50.958;3.124;2023-12-29T21:22:58;8.82;;;2.03;;
37655;SDS011;23498;50.958;3.124;2023-12-29T21:25:45;15.73;;;3.35;;
37655;SDS011;23498;50.958;3.124;2023-12-29T21:34:17;9.00;;;2.15;;
37655;SDS011;23498;50.958;3.124;2023-12-29T21:39:32;11.95;;;3.33;;
37655;SDS011;23498;50.958;3.124;2023-12-29T21:41:59;14.80;;;2.90;;
37655;SDS011;23498;50.958;3.124;2023-12-29T21:44:27;17.40;;;3.47;;
37655;SDS011;23498;50.958;3.124;2023-12-29T21:47:07;13.88;;;3.08;;
37655;SDS011;23498;50.958;3.124;2023-12-29T21:49:33;17.30;;;3.28;;
